createdAt,value
2019-06-20T00:00:49.625Z,1.63
2019-06-20T00:01:49.270Z,1.53
2019-06-20T00:02:49.228Z,1.77
2019-06-20T00:03:49.302Z,2.02
2019-06-20T00:04:49.716Z,1.56
2019-06-20T00:05:49.297Z,0.60
2019-06-20T00:06:50.013Z,1.51
2019-06-20T00:07:49.879Z,1.23
2019-06-20T00:08:49.764Z,1.42
2019-06-20T00:09:52.436Z,1.05
2019-06-20T00:10:49.282Z,1.28
2019-06-20T00:11:50.010Z,1.79
2019-06-20T00:12:59.917Z,0.77
2019-06-20T00:13:49.424Z,1.02
2019-06-20T00:14:50.089Z,0.87
2019-06-20T00:15:49.666Z,1.31
2019-06-20T00:16:49.926Z,1.93
2019-06-20T00:17:49.446Z,0.58
2019-06-20T00:18:50.104Z,1.50
2019-06-20T00:19:49.271Z,1.56
2019-06-20T00:20:49.761Z,1.79
2019-06-20T00:21:50.061Z,2.15
2019-06-20T00:22:49.291Z,2.11
2019-06-20T00:23:49.607Z,2.09
2019-06-20T00:24:49.312Z,1.70
2019-06-20T00:25:49.908Z,1.03
2019-06-20T00:26:49.943Z,2.41
2019-06-20T00:27:50.785Z,1.55
2019-06-20T00:28:49.650Z,1.49
2019-06-20T00:29:49.741Z,2.24
2019-06-20T00:30:50.256Z,2.57
2019-06-20T00:31:49.658Z,2.39
2019-06-20T00:32:49.798Z,2.44
2019-06-20T00:33:49.674Z,2.95
2019-06-20T00:34:50.375Z,1.45
2019-06-20T00:35:49.282Z,1.54
2019-06-20T00:36:51.392Z,2.33
2019-06-20T00:37:49.368Z,2.36
2019-06-20T00:38:49.647Z,1.77
2019-06-20T00:39:50.492Z,1.42
2019-06-20T00:40:49.930Z,1.31
2019-06-20T00:41:49.638Z,3.01
2019-06-20T00:42:49.692Z,1.83
2019-06-20T00:43:49.892Z,1.77
2019-06-20T00:44:50.213Z,1.70
2019-06-20T00:45:49.974Z,2.40
2019-06-20T00:46:50.272Z,1.73
2019-06-20T00:47:49.291Z,1.18
2019-06-20T00:48:49.402Z,1.81
2019-06-20T00:49:49.611Z,1.35
2019-06-20T00:50:49.700Z,1.83
2019-06-20T00:51:49.254Z,1.82
2019-06-20T00:52:49.397Z,1.71
2019-06-20T00:53:49.634Z,2.33
2019-06-20T00:54:50.399Z,1.65
2019-06-20T00:55:50.070Z,2.67
2019-06-20T00:56:50.021Z,1.67
2019-06-20T00:57:49.269Z,1.93
2019-06-20T00:58:50.405Z,1.34
2019-06-20T00:59:50.071Z,1.32
2019-06-20T01:00:49.491Z,2.39
2019-06-20T01:01:51.449Z,1.65
2019-06-20T01:02:49.828Z,1.43
2019-06-20T01:03:51.256Z,2.17
2019-06-20T01:04:50.719Z,0.87
2019-06-20T01:05:50.207Z,1.55
2019-06-20T01:06:51.267Z,1.77
2019-06-20T01:07:49.984Z,2.75
2019-06-20T01:08:49.650Z,1.30
2019-06-20T01:09:50.257Z,1.30
2019-06-20T01:10:50.117Z,0.24
2019-06-20T01:11:50.855Z,1.13
2019-06-20T01:12:50.362Z,1.95
2019-06-20T01:13:52.812Z,1.56
2019-06-20T01:14:50.091Z,1.29
2019-06-20T01:15:50.776Z,1.82
2019-06-20T01:16:51.813Z,2.04
2019-06-20T01:17:50.962Z,1.53
2019-06-20T01:18:50.113Z,1.76
2019-06-20T01:19:49.374Z,1.54
2019-06-20T01:20:50.427Z,0.90
2019-06-20T01:21:51.297Z,1.64
2019-06-20T01:22:50.122Z,1.16
2019-06-20T01:23:50.961Z,1.90
2019-06-20T01:24:50.637Z,2.13
2019-06-20T01:25:51.057Z,1.45
2019-06-20T01:26:50.004Z,1.35
2019-06-20T01:27:50.775Z,1.01
2019-06-20T01:28:49.502Z,1.55
2019-06-20T01:29:52.190Z,1.26
2019-06-20T01:30:51.414Z,1.56
2019-06-20T01:31:49.930Z,2.13
2019-06-20T01:32:49.692Z,1.22
2019-06-20T01:33:49.345Z,1.22
2019-06-20T01:34:49.724Z,0.43
2019-06-20T01:35:50.221Z,0.52
2019-06-20T01:36:49.473Z,1.23
2019-06-20T01:37:49.414Z,1.61
2019-06-20T01:38:50.095Z,0.62
2019-06-20T01:39:49.346Z,1.01
2019-06-20T01:40:50.169Z,1.82
2019-06-20T01:41:49.741Z,1.10
2019-06-20T01:42:49.885Z,1.29
2019-06-20T01:43:50.907Z,0.97
2019-06-20T01:44:49.388Z,0.72
2019-06-20T01:45:50.385Z,1.62
2019-06-20T01:46:49.750Z,1.58
2019-06-20T01:47:50.410Z,2.34
2019-06-20T01:48:49.340Z,1.27
2019-06-20T01:49:50.018Z,1.88
2019-06-20T01:50:51.266Z,3.03
2019-06-20T01:51:50.209Z,1.29
2019-06-20T01:52:49.749Z,1.65
2019-06-20T01:53:50.101Z,1.42
2019-06-20T01:54:49.862Z,0.98
2019-06-20T01:55:51.688Z,1.23
2019-06-20T01:56:50.179Z,1.33
2019-06-20T01:57:49.856Z,0.63
2019-06-20T01:58:50.129Z,1.10
2019-06-20T01:59:49.725Z,0.37
2019-06-20T02:00:49.551Z,1.59
2019-06-20T02:01:49.473Z,1.05
2019-06-20T02:02:50.434Z,1.43
2019-06-20T02:03:50.556Z,1.36
2019-06-20T02:04:50.147Z,0.84
2019-06-20T02:05:50.359Z,0.29
2019-06-20T02:06:49.897Z,0.79
2019-06-20T02:07:49.459Z,1.60
2019-06-20T02:08:50.463Z,1.05
2019-06-20T02:09:49.735Z,0.08
2019-06-20T02:10:50.168Z,1.33
2019-06-20T02:11:49.411Z,0.80
2019-06-20T02:12:50.154Z,0.77
2019-06-20T02:14:06.134Z,0.54
2019-06-20T02:14:49.468Z,0.83
2019-06-20T02:15:49.844Z,0.30
2019-06-20T02:16:50.601Z,0.23
2019-06-20T02:17:49.404Z,0.71
2019-06-20T02:18:50.334Z,0.89
2019-06-20T02:19:50.164Z,1.31
2019-06-20T02:20:50.049Z,0.49
2019-06-20T02:21:49.896Z,0.03
2019-06-20T02:22:49.562Z,0.13
2019-06-20T02:23:50.370Z,1.11
2019-06-20T02:24:50.323Z,1.26
2019-06-20T02:25:50.016Z,0.83
2019-06-20T02:26:50.511Z,1.46
2019-06-20T02:27:49.896Z,0.81
2019-06-20T02:28:52.065Z,0.66
2019-06-20T02:29:49.424Z,1.19
2019-06-20T02:30:49.919Z,0.87
2019-06-20T02:31:50.199Z,0.97
2019-06-20T02:32:49.798Z,2.22
2019-06-20T02:33:49.757Z,1.84
2019-06-20T02:34:49.720Z,0.95
2019-06-20T02:35:49.819Z,1.24
2019-06-20T02:36:50.365Z,1.71
2019-06-20T02:37:49.611Z,2.25
2019-06-20T02:38:49.787Z,0.91
2019-06-20T02:39:50.056Z,0.70
2019-06-20T02:40:49.431Z,1.22
2019-06-20T02:41:50.062Z,1.27
2019-06-20T02:42:51.282Z,1.18
2019-06-20T02:43:49.727Z,1.19
2019-06-20T02:44:49.586Z,0.92
2019-06-20T02:45:49.462Z,1.47
2019-06-20T02:46:50.764Z,0.89
2019-06-20T02:47:49.919Z,0.39
2019-06-20T02:48:50.634Z,0.86
2019-06-20T02:49:49.407Z,0.95
2019-06-20T02:50:49.808Z,1.00
2019-06-20T02:51:49.419Z,1.51
2019-06-20T02:52:49.994Z,3.14
2019-06-20T02:53:49.467Z,1.82
2019-06-20T02:54:49.448Z,1.17
2019-06-20T02:55:49.619Z,1.02
2019-06-20T02:56:50.219Z,0.66
2019-06-20T02:57:50.250Z,1.00
2019-06-20T02:58:49.404Z,2.40
2019-06-20T02:59:49.490Z,2.10
2019-06-20T03:00:49.827Z,2.08
2019-06-20T03:01:50.043Z,2.11
2019-06-20T03:02:49.505Z,1.72
2019-06-20T03:03:49.671Z,2.11
2019-06-20T03:04:49.444Z,2.22
2019-06-20T03:05:50.119Z,2.26
2019-06-20T03:06:50.414Z,1.33
2019-06-20T03:07:50.415Z,1.39
2019-06-20T03:08:49.593Z,1.32
2019-06-20T03:09:50.072Z,1.41
2019-06-20T03:10:50.498Z,1.31
2019-06-20T03:11:50.204Z,1.55
2019-06-20T03:12:50.398Z,1.85
2019-06-20T03:13:51.186Z,1.74
2019-06-20T03:14:50.554Z,1.47
2019-06-20T03:15:50.194Z,1.78
2019-06-20T03:16:49.782Z,1.46
2019-06-20T03:17:50.105Z,1.30
2019-06-20T03:18:49.483Z,1.91
2019-06-20T03:19:49.786Z,1.62
2019-06-20T03:20:49.961Z,1.76
2019-06-20T03:21:50.040Z,2.22
2019-06-20T03:22:49.488Z,1.61
2019-06-20T03:23:50.891Z,1.45
2019-06-20T03:24:49.823Z,1.85
2019-06-20T03:25:49.504Z,1.37
2019-06-20T03:26:49.742Z,1.57
2019-06-20T03:27:50.239Z,1.79
2019-06-20T03:28:50.069Z,2.05
2019-06-20T03:29:50.243Z,1.79
2019-06-20T03:30:49.827Z,2.14
2019-06-20T03:31:50.312Z,1.09
2019-06-20T03:32:50.346Z,1.76
2019-06-20T03:33:50.135Z,2.13
2019-06-20T03:34:49.448Z,1.39
2019-06-20T03:35:49.723Z,1.49
2019-06-20T03:36:49.890Z,2.48
2019-06-20T03:37:50.384Z,2.35
2019-06-20T03:38:49.879Z,1.60
2019-06-20T03:39:49.489Z,1.71
2019-06-20T03:40:49.818Z,1.47
2019-06-20T03:41:50.247Z,2.10
2019-06-20T03:42:49.534Z,0.95
2019-06-20T03:43:49.482Z,1.99
2019-06-20T03:45:01.752Z,1.58
2019-06-20T03:45:49.511Z,1.75
2019-06-20T03:46:49.471Z,3.05
2019-06-20T03:47:49.571Z,1.70
2019-06-20T03:48:49.860Z,1.78
2019-06-20T03:49:50.449Z,1.72
2019-06-20T03:50:49.912Z,2.30
2019-06-20T03:51:51.720Z,1.12
2019-06-20T03:52:50.756Z,2.01
2019-06-20T03:53:49.871Z,1.03
2019-06-20T03:54:49.553Z,1.79
2019-06-20T03:55:49.613Z,1.46
2019-06-20T03:56:49.828Z,3.07
2019-06-20T03:57:49.896Z,1.85
2019-06-20T03:58:49.485Z,1.45
2019-06-20T03:59:51.016Z,2.10
2019-06-20T04:00:50.177Z,3.08
2019-06-20T04:01:49.513Z,2.80
2019-06-20T04:02:49.505Z,2.91
2019-06-20T04:03:49.865Z,1.44
2019-06-20T04:04:49.861Z,2.43
2019-06-20T04:05:49.947Z,2.13
2019-06-20T04:06:50.561Z,1.63
2019-06-20T04:07:50.044Z,3.69
2019-06-20T04:08:49.955Z,2.85
2019-06-20T04:09:49.875Z,3.53
2019-06-20T04:10:50.476Z,3.88
2019-06-20T04:11:49.847Z,2.57
2019-06-20T04:12:49.538Z,2.43
2019-06-20T04:13:49.783Z,2.64
2019-06-20T04:14:49.460Z,2.60
2019-06-20T04:15:49.816Z,2.88
2019-06-20T04:16:49.493Z,2.08
2019-06-20T04:17:49.621Z,2.46
2019-06-20T04:18:50.005Z,2.63
2019-06-20T04:19:49.853Z,2.18
2019-06-20T04:20:49.490Z,1.93
2019-06-20T04:21:49.889Z,2.15
2019-06-20T04:22:49.661Z,2.87
2019-06-20T04:23:49.537Z,2.32
2019-06-20T04:24:49.906Z,1.88
2019-06-20T04:25:49.527Z,1.83
2019-06-20T04:26:49.497Z,1.73
2019-06-20T04:27:49.789Z,1.27
2019-06-20T04:28:50.600Z,1.94
2019-06-20T04:29:49.542Z,2.37
2019-06-20T04:30:49.574Z,2.40
2019-06-20T04:31:50.155Z,1.54
2019-06-20T04:32:50.032Z,2.34
2019-06-20T04:33:50.663Z,2.83
2019-06-20T04:34:50.864Z,2.60
2019-06-20T04:35:49.948Z,1.10
2019-06-20T04:36:50.735Z,2.21
2019-06-20T04:37:49.892Z,2.90
2019-06-20T04:38:49.549Z,2.39
2019-06-20T04:39:50.339Z,3.33
2019-06-20T04:40:49.569Z,2.01
2019-06-20T04:41:49.820Z,3.26
2019-06-20T04:42:49.938Z,2.10
2019-06-20T04:43:51.746Z,2.82
2019-06-20T04:44:50.068Z,1.27
2019-06-20T04:45:50.633Z,1.83
2019-06-20T04:46:50.536Z,1.37
2019-06-20T04:47:50.057Z,3.12
2019-06-20T04:48:50.303Z,2.30
2019-06-20T04:49:49.590Z,2.08
2019-06-20T04:50:49.868Z,2.30
2019-06-20T04:51:49.601Z,2.31
2019-06-20T04:52:49.793Z,2.44
2019-06-20T04:53:49.523Z,1.93
2019-06-20T04:54:49.596Z,2.11
2019-06-20T04:55:51.279Z,2.82
2019-06-20T04:56:49.884Z,2.06
2019-06-20T04:57:50.347Z,0.95
2019-06-20T04:58:50.017Z,1.27
2019-06-20T04:59:49.896Z,1.89
2019-06-20T05:00:50.673Z,2.30
2019-06-20T05:01:49.956Z,2.39
2019-06-20T05:02:49.998Z,2.52
2019-06-20T05:03:49.745Z,2.69
2019-06-20T05:04:49.590Z,1.59
2019-06-20T05:05:50.516Z,0.78
2019-06-20T05:06:49.961Z,1.45
2019-06-20T05:07:50.664Z,3.36
2019-06-20T05:08:50.168Z,2.79
2019-06-20T05:09:51.346Z,2.01
2019-06-20T05:10:49.616Z,3.02
2019-06-20T05:11:49.622Z,3.66
2019-06-20T05:12:49.747Z,3.66
2019-06-20T05:13:50.523Z,3.16
2019-06-20T05:14:50.870Z,2.53
2019-06-20T05:15:53.105Z,1.77
2019-06-20T05:16:50.737Z,1.56
2019-06-20T05:17:49.758Z,2.49
2019-06-20T05:18:49.635Z,2.61
2019-06-20T05:19:50.660Z,2.47
2019-06-20T05:20:50.319Z,1.70
2019-06-20T05:21:49.679Z,2.99
2019-06-20T05:22:50.377Z,1.92
2019-06-20T05:23:49.576Z,3.63
2019-06-20T05:24:49.998Z,2.07
2019-06-20T05:25:50.240Z,2.24
2019-06-20T05:26:50.740Z,3.36
2019-06-20T05:27:49.656Z,2.35
2019-06-20T05:28:49.676Z,2.87
2019-06-20T05:29:50.104Z,2.21
2019-06-20T05:30:50.172Z,3.04
2019-06-20T05:31:50.677Z,2.82
2019-06-20T05:32:49.941Z,2.35
2019-06-20T05:33:50.333Z,2.37
2019-06-20T05:34:49.664Z,3.01
2019-06-20T05:35:50.056Z,2.53
2019-06-20T05:36:49.646Z,1.97
2019-06-20T05:37:49.961Z,2.15
2019-06-20T05:38:50.060Z,2.42
2019-06-20T05:39:50.317Z,1.55
2019-06-20T05:40:49.786Z,2.82
2019-06-20T05:41:50.399Z,1.37
2019-06-20T05:42:50.036Z,1.26
2019-06-20T05:43:49.666Z,2.37
2019-06-20T05:44:50.706Z,2.35
2019-06-20T05:45:49.600Z,2.94
2019-06-20T05:46:50.595Z,3.42
2019-06-20T05:47:50.459Z,2.95
2019-06-20T05:48:49.990Z,2.11
2019-06-20T05:49:49.651Z,3.15
2019-06-20T05:50:50.589Z,2.36
2019-06-20T05:51:49.593Z,3.28
2019-06-20T05:52:50.278Z,2.41
2019-06-20T05:53:50.263Z,2.10
2019-06-20T05:54:50.419Z,3.83
2019-06-20T05:55:50.503Z,3.01
2019-06-20T05:56:50.363Z,2.86
2019-06-20T05:57:50.411Z,3.32
2019-06-20T05:58:50.616Z,4.74
2019-06-20T05:59:50.050Z,2.99
2019-06-20T06:00:49.673Z,2.92
2019-06-20T06:01:56.082Z,2.28
2019-06-20T06:02:49.640Z,3.10
2019-06-20T06:03:51.254Z,2.05
2019-06-20T06:04:50.491Z,1.19
2019-06-20T06:05:50.360Z,3.57
2019-06-20T06:06:49.617Z,2.81
2019-06-20T06:07:50.438Z,1.84
2019-06-20T06:08:50.259Z,3.64
2019-06-20T06:09:50.009Z,3.93
2019-06-20T06:10:50.334Z,4.24
2019-06-20T06:11:49.631Z,3.53
2019-06-20T06:12:49.786Z,3.07
2019-06-20T06:13:49.705Z,3.12
2019-06-20T06:14:49.656Z,2.26
2019-06-20T06:15:49.645Z,2.61
2019-06-20T06:16:49.811Z,2.90
2019-06-20T06:17:49.681Z,3.52
2019-06-20T06:18:49.635Z,3.05
2019-06-20T06:19:49.677Z,3.69
2019-06-20T06:20:50.501Z,2.93
2019-06-20T06:21:50.702Z,1.39
2019-06-20T06:22:50.390Z,3.22
2019-06-20T06:23:49.668Z,3.69
2019-06-20T06:24:50.083Z,3.22
2019-06-20T06:25:49.700Z,3.57
2019-06-20T06:26:49.864Z,3.52
2019-06-20T06:27:50.410Z,3.38
2019-06-20T06:28:50.313Z,2.53
2019-06-20T06:29:50.010Z,2.42
2019-06-20T06:30:49.649Z,3.55
2019-06-20T06:31:49.704Z,1.34
2019-06-20T06:32:50.429Z,2.48
2019-06-20T06:33:49.621Z,2.71
2019-06-20T06:34:50.179Z,2.43
2019-06-20T06:35:49.679Z,2.51
2019-06-20T06:36:49.689Z,3.45
2019-06-20T06:37:49.751Z,2.07
2019-06-20T06:38:50.663Z,2.90
2019-06-20T06:39:50.273Z,2.80
2019-06-20T06:40:50.084Z,3.47
2019-06-20T06:41:49.806Z,3.01
2019-06-20T06:42:49.831Z,2.57
2019-06-20T06:43:50.094Z,3.80
2019-06-20T06:44:49.729Z,3.90
2019-06-20T06:45:50.604Z,3.55
2019-06-20T06:46:55.528Z,3.90
2019-06-20T06:47:49.889Z,3.80
2019-06-20T06:48:49.669Z,2.79
2019-06-20T06:49:51.013Z,2.95
2019-06-20T06:50:49.744Z,4.67
2019-06-20T06:51:49.771Z,2.96
2019-06-20T06:52:50.702Z,2.01
2019-06-20T06:53:49.871Z,2.82
2019-06-20T06:54:50.945Z,2.90
2019-06-20T06:55:49.785Z,2.30
2019-06-20T06:56:49.704Z,2.96
2019-06-20T06:57:50.392Z,3.25
2019-06-20T06:58:49.762Z,3.42
2019-06-20T06:59:49.777Z,3.85
2019-06-20T07:00:50.036Z,2.98
2019-06-20T07:01:49.846Z,3.30
2019-06-20T07:02:51.515Z,3.38
2019-06-20T07:03:50.959Z,2.48
2019-06-20T07:04:50.011Z,3.25
2019-06-20T07:05:51.561Z,4.76
2019-06-20T07:06:49.741Z,2.79
2019-06-20T07:07:50.501Z,2.52
2019-06-20T07:08:50.208Z,3.53
2019-06-20T07:09:51.251Z,3.83
2019-06-20T07:10:49.928Z,4.07
2019-06-20T07:11:49.968Z,2.94
2019-06-20T07:12:51.079Z,1.83
2019-06-20T07:13:49.798Z,3.99
2019-06-20T07:14:50.924Z,2.50
2019-06-20T07:15:49.788Z,3.96
2019-06-20T07:16:59.717Z,2.73
2019-06-20T07:17:49.768Z,1.34
2019-06-20T07:18:49.820Z,1.90
2019-06-20T07:19:49.692Z,1.92
2019-06-20T07:20:50.103Z,2.13
2019-06-20T07:21:50.789Z,1.54
2019-06-20T07:22:49.900Z,2.82
2019-06-20T07:23:50.480Z,2.99
2019-06-20T07:24:49.838Z,1.43
2019-06-20T07:25:52.459Z,1.94
2019-06-20T07:26:49.891Z,1.24
2019-06-20T07:27:50.371Z,1.16
2019-06-20T07:28:51.571Z,1.67
2019-06-20T07:29:49.865Z,1.67
2019-06-20T07:30:49.743Z,1.20
2019-06-20T07:31:50.145Z,2.51
2019-06-20T07:32:50.727Z,2.00
2019-06-20T07:33:50.102Z,3.49
2019-06-20T07:34:50.431Z,2.09
2019-06-20T07:35:50.223Z,3.11
2019-06-20T07:36:50.077Z,3.15
2019-06-20T07:37:51.094Z,2.16
2019-06-20T07:38:50.165Z,3.23
2019-06-20T07:39:51.001Z,2.50
2019-06-20T07:40:50.561Z,2.95
2019-06-20T07:41:50.559Z,3.98
2019-06-20T07:42:50.198Z,2.86
2019-06-20T07:43:51.789Z,2.91
2019-06-20T07:44:50.190Z,3.52
2019-06-20T07:46:02.010Z,4.97
2019-06-20T07:46:50.248Z,1.97
2019-06-20T07:47:50.824Z,2.83
2019-06-20T07:48:49.755Z,2.60
2019-06-20T07:49:49.847Z,2.79
2019-06-20T07:50:50.369Z,4.21
2019-06-20T07:51:50.522Z,2.28
2019-06-20T07:53:01.326Z,3.41
2019-06-20T07:53:49.834Z,3.01
2019-06-20T07:54:50.382Z,2.82
2019-06-20T07:55:50.786Z,3.18
2019-06-20T07:56:50.860Z,2.57
2019-06-20T07:57:51.083Z,2.67
2019-06-20T07:58:50.051Z,3.56
2019-06-20T07:59:49.816Z,3.05
2019-06-20T08:00:49.893Z,2.25
2019-06-20T08:01:50.193Z,2.48
2019-06-20T08:02:49.863Z,3.81
2019-06-20T08:03:50.003Z,2.13
2019-06-20T08:04:50.084Z,4.09
2019-06-20T08:05:50.166Z,2.72
2019-06-20T08:06:49.782Z,3.91
2019-06-20T08:07:49.773Z,5.63
2019-06-20T08:08:49.824Z,3.12
2019-06-20T08:09:50.237Z,2.48
2019-06-20T08:10:49.810Z,3.37
2019-06-20T08:11:49.814Z,2.78
2019-06-20T08:12:49.777Z,2.62
2019-06-20T08:13:49.751Z,3.99
2019-06-20T08:14:50.168Z,3.54
2019-06-20T08:15:50.427Z,3.56
2019-06-20T08:16:50.045Z,3.73
2019-06-20T08:17:49.828Z,4.99
2019-06-20T08:18:50.392Z,4.20
2019-06-20T08:19:50.140Z,3.03
2019-06-20T08:20:49.880Z,3.32
2019-06-20T08:21:50.876Z,3.82
2019-06-20T08:22:50.217Z,4.40
2019-06-20T08:23:49.833Z,3.08
2019-06-20T08:24:50.024Z,3.60
2019-06-20T08:25:49.993Z,3.06
2019-06-20T08:26:49.826Z,3.74
2019-06-20T08:27:50.163Z,3.19
2019-06-20T08:29:07.115Z,3.22
2019-06-20T08:29:50.567Z,2.73
2019-06-20T08:30:50.790Z,2.53
2019-06-20T08:31:50.937Z,3.88
2019-06-20T08:32:50.200Z,2.08
2019-06-20T08:33:50.160Z,1.62
2019-06-20T08:34:50.420Z,3.70
2019-06-20T08:35:51.020Z,2.98
2019-06-20T08:36:49.849Z,3.92
2019-06-20T08:37:49.897Z,4.26
2019-06-20T08:38:50.199Z,4.03
2019-06-20T08:39:50.059Z,3.68
2019-06-20T08:40:50.777Z,2.64
2019-06-20T08:41:50.318Z,2.36
2019-06-20T08:42:50.219Z,1.72
2019-06-20T08:43:50.275Z,2.13
2019-06-20T08:44:52.153Z,1.79
2019-06-20T08:45:50.369Z,1.42
2019-06-20T08:46:49.978Z,1.50
2019-06-20T08:47:50.002Z,2.32
2019-06-20T08:48:50.055Z,1.09
2019-06-20T08:49:50.622Z,1.18
2019-06-20T08:50:50.316Z,2.97
2019-06-20T08:51:50.430Z,2.89
2019-06-20T08:52:49.898Z,2.18
2019-06-20T08:53:51.114Z,1.56
2019-06-20T08:54:50.399Z,2.55
2019-06-20T08:55:50.144Z,2.82
2019-06-20T08:56:51.244Z,3.48
2019-06-20T08:57:50.239Z,2.89
2019-06-20T08:58:50.687Z,2.77
2019-06-20T08:59:50.232Z,1.54
2019-06-20T09:00:49.995Z,1.73
2019-06-20T09:01:49.856Z,3.22
2019-06-20T09:02:49.943Z,2.39
2019-06-20T09:03:49.851Z,4.82
2019-06-20T09:04:49.830Z,2.92
2019-06-20T09:05:50.257Z,1.96
2019-06-20T09:06:50.524Z,1.53
2019-06-20T09:07:50.903Z,0.46
2019-06-20T09:08:51.158Z,1.64
2019-06-20T09:09:50.836Z,2.77
2019-06-20T09:10:51.504Z,2.44
2019-06-20T09:11:50.103Z,2.46
2019-06-20T09:12:50.490Z,2.77
2019-06-20T09:13:50.813Z,2.82
2019-06-20T09:14:50.285Z,1.56
2019-06-20T09:15:50.211Z,3.48
2019-06-20T09:16:50.194Z,3.00
2019-06-20T09:17:49.942Z,3.21
2019-06-20T09:18:49.909Z,2.57
2019-06-20T09:19:50.199Z,1.77
2019-06-20T09:20:49.862Z,2.05
2019-06-20T09:21:52.589Z,2.66
2019-06-20T09:22:49.897Z,3.18
2019-06-20T09:23:52.431Z,2.16
2019-06-20T09:24:50.035Z,1.57
2019-06-20T09:25:51.139Z,2.81
2019-06-20T09:26:51.154Z,2.62
2019-06-20T09:27:52.658Z,2.61
2019-06-20T09:28:51.000Z,2.47
2019-06-20T09:29:51.538Z,3.53
2019-06-20T09:30:50.695Z,2.42
2019-06-20T09:31:52.431Z,2.79
2019-06-20T09:32:49.872Z,4.16
2019-06-20T09:33:52.114Z,3.20
2019-06-20T09:34:51.364Z,2.50
2019-06-20T09:35:52.172Z,3.80
2019-06-20T09:36:52.017Z,1.37
2019-06-20T09:37:51.775Z,3.71
2019-06-20T09:38:50.627Z,3.45
2019-06-20T09:39:51.735Z,3.16
2019-06-20T09:40:51.342Z,1.81
2019-06-20T09:41:51.097Z,2.56
2019-06-20T09:42:51.320Z,1.99
2019-06-20T09:43:50.084Z,2.99
2019-06-20T09:44:51.464Z,1.99
2019-06-20T09:45:51.027Z,2.75
2019-06-20T09:46:51.222Z,3.36
2019-06-20T09:47:51.768Z,2.56
2019-06-20T09:48:52.194Z,2.11
2019-06-20T09:49:52.430Z,1.76
2019-06-20T09:50:51.544Z,2.34
2019-06-20T09:51:50.284Z,1.46
2019-06-20T09:52:51.581Z,1.93
2019-06-20T09:53:51.773Z,2.79
2019-06-20T09:54:51.781Z,2.78
2019-06-20T09:55:50.010Z,4.44
2019-06-20T09:56:53.060Z,5.37
2019-06-20T09:57:50.812Z,3.79
2019-06-20T09:58:51.179Z,3.64
2019-06-20T10:00:03.288Z,2.77
2019-06-20T10:00:50.870Z,3.33
2019-06-20T10:01:51.050Z,3.85
2019-06-20T10:02:51.776Z,3.25
2019-06-20T10:03:50.512Z,4.07
2019-06-20T10:04:50.686Z,2.63
2019-06-20T10:05:50.712Z,3.03
2019-06-20T10:06:50.510Z,3.51
2019-06-20T10:07:52.222Z,2.95
2019-06-20T10:08:50.115Z,2.83
2019-06-20T10:09:50.399Z,3.05
2019-06-20T10:10:50.676Z,3.60
2019-06-20T10:11:51.836Z,3.01
2019-06-20T10:12:49.974Z,2.72
2019-06-20T10:13:50.257Z,3.66
2019-06-20T10:14:49.938Z,3.50
2019-06-20T10:15:51.529Z,4.59
2019-06-20T10:16:52.256Z,4.00
2019-06-20T10:17:50.230Z,3.56
2019-06-20T10:18:50.139Z,1.92
2019-06-20T10:19:52.051Z,1.45
2019-06-20T10:20:51.172Z,2.55
2019-06-20T10:21:51.822Z,1.72
2019-06-20T10:22:50.946Z,2.69
2019-06-20T10:23:50.018Z,2.86
2019-06-20T10:24:51.226Z,2.08
2019-06-20T10:25:51.539Z,2.13
2019-06-20T10:26:51.414Z,3.28
2019-06-20T10:27:51.300Z,4.29
2019-06-20T10:28:51.410Z,4.59
2019-06-20T10:29:51.087Z,3.05
2019-06-20T10:30:51.120Z,2.34
2019-06-20T10:31:51.216Z,2.80
2019-06-20T10:32:50.981Z,3.43
2019-06-20T10:33:50.934Z,3.98
2019-06-20T10:34:50.902Z,2.30
2019-06-20T10:35:50.465Z,2.79
2019-06-20T10:36:50.170Z,2.58
2019-06-20T10:37:50.353Z,3.50
2019-06-20T10:38:50.345Z,2.67
2019-06-20T10:39:50.050Z,3.03
2019-06-20T10:40:51.993Z,2.78
2019-06-20T10:41:50.334Z,2.98
2019-06-20T10:42:50.454Z,2.43
2019-06-20T10:43:51.768Z,2.94
2019-06-20T10:44:50.318Z,2.83
2019-06-20T10:45:50.112Z,3.35
2019-06-20T10:46:51.762Z,2.87
2019-06-20T10:47:51.034Z,2.74
2019-06-20T10:48:50.108Z,2.02
2019-06-20T10:49:50.420Z,2.59
2019-06-20T10:50:49.953Z,2.22
2019-06-20T10:51:51.977Z,3.11
2019-06-20T10:52:51.739Z,2.93
2019-06-20T10:53:51.407Z,3.04
2019-06-20T10:54:51.431Z,2.59
2019-06-20T10:55:51.153Z,1.76
2019-06-20T10:56:51.025Z,2.40
2019-06-20T10:57:51.459Z,3.14
2019-06-20T10:58:50.704Z,2.27
2019-06-20T10:59:50.875Z,2.58
2019-06-20T11:00:51.181Z,3.10
2019-06-20T11:01:50.970Z,2.81
2019-06-20T11:02:51.004Z,3.42
2019-06-20T11:03:50.070Z,2.35
2019-06-20T11:04:50.848Z,2.05
2019-06-20T11:05:49.989Z,3.75
2019-06-20T11:06:50.037Z,2.80
2019-06-20T11:07:50.470Z,1.51
2019-06-20T11:08:49.974Z,1.95
2019-06-20T11:09:50.083Z,2.26
2019-06-20T11:10:50.067Z,2.54
2019-06-20T11:11:50.339Z,2.31
2019-06-20T11:12:55.651Z,1.55
2019-06-20T11:13:50.009Z,3.26
2019-06-20T11:14:50.505Z,1.88
2019-06-20T11:15:50.105Z,1.15
2019-06-20T11:16:50.385Z,1.01
2019-06-20T11:17:50.008Z,2.85
2019-06-20T11:18:51.145Z,2.45
2019-06-20T11:19:50.027Z,1.63
2019-06-20T11:20:53.189Z,2.62
2019-06-20T11:21:50.065Z,3.00
2019-06-20T11:22:50.024Z,1.35
2019-06-20T11:23:50.965Z,3.30
2019-06-20T11:24:52.159Z,1.88
2019-06-20T11:25:50.388Z,2.10
2019-06-20T11:26:50.848Z,1.79
2019-06-20T11:27:50.072Z,2.81
2019-06-20T11:28:50.404Z,2.56
2019-06-20T11:29:50.355Z,2.86
2019-06-20T11:30:59.626Z,3.68
2019-06-20T11:31:51.217Z,3.01
2019-06-20T11:32:50.010Z,2.18
2019-06-20T11:33:50.094Z,2.58
2019-06-20T11:34:50.503Z,2.56
2019-06-20T11:35:50.047Z,1.35
2019-06-20T11:36:51.558Z,2.03
2019-06-20T11:37:51.088Z,1.93
2019-06-20T11:38:50.401Z,1.51
2019-06-20T11:39:51.359Z,1.81
2019-06-20T11:40:50.658Z,2.83
2019-06-20T11:41:50.492Z,3.11
2019-06-20T11:42:50.132Z,3.74
2019-06-20T11:43:50.187Z,3.26
2019-06-20T11:44:50.038Z,2.73
2019-06-20T11:45:50.812Z,2.11
2019-06-20T11:46:50.403Z,2.81
2019-06-20T11:47:50.361Z,1.84
2019-06-20T11:48:50.474Z,2.53
2019-06-20T11:49:50.412Z,1.72
2019-06-20T11:50:50.882Z,2.15
2019-06-20T11:51:50.334Z,2.92
2019-06-20T11:52:51.228Z,2.53
2019-06-20T11:53:50.376Z,1.59
2019-06-20T11:54:50.168Z,1.84
2019-06-20T11:55:50.083Z,1.44
2019-06-20T11:56:51.019Z,0.84
2019-06-20T11:57:50.022Z,1.82
2019-06-20T11:58:50.095Z,1.92
2019-06-20T11:59:50.060Z,0.62
2019-06-20T12:01:03.110Z,0.96
2019-06-20T12:01:51.240Z,2.03
2019-06-20T12:02:50.328Z,3.06
2019-06-20T12:03:50.021Z,3.52
2019-06-20T12:04:50.695Z,3.67
2019-06-20T12:05:50.712Z,2.74
2019-06-20T12:06:50.164Z,1.92
2019-06-20T12:07:50.903Z,1.85
2019-06-20T12:08:50.391Z,1.58
2019-06-20T12:09:51.115Z,1.52
2019-06-20T12:10:50.101Z,0.13
2019-06-20T12:11:50.416Z,0.26
2019-06-20T12:12:50.050Z,0.54
2019-06-20T12:13:50.446Z,1.32
2019-06-20T12:14:50.227Z,1.89
2019-06-20T12:15:50.500Z,0.74
2019-06-20T12:16:50.971Z,1.45
2019-06-20T12:17:50.715Z,0.79
2019-06-20T12:18:51.206Z,1.48
2019-06-20T12:19:51.070Z,2.22
2019-06-20T12:20:50.702Z,1.31
2019-06-20T12:21:50.889Z,1.69
2019-06-20T12:22:50.918Z,1.97
2019-06-20T12:23:50.630Z,2.40
2019-06-20T12:24:50.138Z,3.25
2019-06-20T12:25:50.112Z,1.94
2019-06-20T12:26:50.195Z,2.75
2019-06-20T12:27:51.704Z,2.00
2019-06-20T12:28:50.738Z,2.67
2019-06-20T12:29:50.444Z,1.90
2019-06-20T12:30:50.499Z,1.62
2019-06-20T12:31:52.884Z,1.29
2019-06-20T12:32:50.082Z,1.96
2019-06-20T12:33:50.092Z,2.34
2019-06-20T12:34:50.128Z,3.23
2019-06-20T12:35:51.385Z,2.61
2019-06-20T12:36:50.433Z,0.99
2019-06-20T12:37:52.043Z,2.16
2019-06-20T12:38:50.934Z,1.67
2019-06-20T12:39:50.077Z,1.72
2019-06-20T12:40:50.500Z,2.46
2019-06-20T12:41:50.872Z,2.13
2019-06-20T12:42:50.424Z,3.46
2019-06-20T12:43:51.235Z,2.43
2019-06-20T12:44:50.813Z,3.80
2019-06-20T12:45:51.706Z,3.42
2019-06-20T12:46:50.144Z,2.67
2019-06-20T12:47:50.838Z,1.50
2019-06-20T12:48:50.687Z,1.82
2019-06-20T12:49:50.747Z,3.24
2019-06-20T12:50:50.442Z,2.79
2019-06-20T12:51:50.934Z,3.30
2019-06-20T12:52:50.600Z,2.35
2019-06-20T12:53:51.145Z,2.80
2019-06-20T12:54:50.548Z,1.84
2019-06-20T12:55:50.778Z,1.56
2019-06-20T12:56:50.603Z,1.68
2019-06-20T12:57:50.435Z,2.21
2019-06-20T12:58:50.244Z,1.66
2019-06-20T12:59:50.514Z,1.81
2019-06-20T13:00:50.445Z,1.65
2019-06-20T13:01:51.720Z,1.86
2019-06-20T13:02:50.227Z,1.10
2019-06-20T13:03:50.600Z,1.25
2019-06-20T13:04:50.662Z,1.02
2019-06-20T13:05:50.270Z,2.35
2019-06-20T13:06:50.655Z,1.97
2019-06-20T13:07:50.515Z,1.76
2019-06-20T13:08:50.976Z,2.28
2019-06-20T13:09:50.360Z,1.93
2019-06-20T13:10:51.438Z,1.43
2019-06-20T13:11:50.505Z,1.76
2019-06-20T13:12:51.634Z,1.36
2019-06-20T13:13:50.175Z,1.78
2019-06-20T13:14:50.914Z,1.80
2019-06-20T13:15:50.885Z,1.24
2019-06-20T13:16:50.742Z,1.16
2019-06-20T13:17:50.950Z,1.25
2019-06-20T13:18:51.368Z,1.66